createdAt,value
2023-01-18T00:01:46.962Z,3.24
2023-01-18T00:04:20.439Z,3.18
2023-01-18T00:06:52.413Z,3.04
2023-01-18T00:09:25.133Z,2.99
2023-01-18T00:11:57.632Z,2.93
2023-01-18T00:14:30.883Z,2.90
2023-01-18T00:17:03.167Z,2.90
2023-01-18T00:19:35.686Z,2.80
2023-01-18T00:22:08.373Z,2.80
2023-01-18T00:24:40.270Z,2.80
2023-01-18T00:27:13.468Z,2.81
2023-01-18T00:29:45.911Z,2.80
2023-01-18T00:32:18.721Z,2.81
2023-01-18T00:34:50.663Z,2.82
2023-01-18T00:37:27.000Z,2.79
2023-01-18T00:39:58.853Z,2.79
2023-01-18T00:42:50.735Z,2.76
2023-01-18T00:45:23.016Z,2.75
2023-01-18T00:47:55.290Z,2.76
2023-01-18T00:50:27.211Z,2.75
2023-01-18T00:53:00.640Z,2.75
2023-01-18T00:55:33.020Z,2.75
2023-01-18T00:58:05.898Z,2.72
2023-01-18T01:00:39.441Z,2.73
2023-01-18T01:03:13.502Z,2.75
2023-01-18T01:06:04.563Z,2.71
2023-01-18T01:08:36.514Z,2.69
2023-01-18T01:11:12.717Z,2.67
2023-01-18T01:14:02.894Z,2.64
2023-01-18T01:16:53.900Z,2.65
2023-01-18T01:19:44.269Z,2.64
2023-01-18T01:22:35.568Z,2.68
2023-01-18T01:25:26.860Z,2.62
2023-01-18T01:27:58.792Z,2.59
2023-01-18T01:30:31.612Z,2.44
2023-01-18T01:33:03.574Z,2.37
2023-01-18T01:35:36.388Z,2.40
2023-01-18T01:38:09.096Z,2.29
2023-01-18T01:40:41.465Z,2.35
2023-01-18T01:43:13.781Z,2.27
2023-01-18T01:45:47.157Z,2.15
2023-01-18T01:48:20.112Z,2.11
2023-01-18T01:50:52.017Z,2.03
2023-01-18T01:53:25.103Z,2.08
2023-01-18T01:55:56.962Z,2.03
2023-01-18T01:58:30.520Z,2.01
2023-01-18T02:01:02.692Z,1.84
2023-01-18T02:03:39.918Z,1.90
2023-01-18T02:06:31.137Z,1.83
2023-01-18T02:09:11.927Z,1.66
2023-01-18T02:11:44.130Z,1.69
2023-01-18T02:14:17.336Z,1.68
2023-01-18T02:16:54.885Z,1.57
2023-01-18T02:20:24.461Z,1.52
2023-01-18T02:23:46.334Z,1.43
2023-01-18T02:26:40.910Z,1.41
2023-01-18T02:29:21.727Z,1.51
2023-01-18T02:32:41.520Z,1.35
2023-01-18T02:35:48.873Z,1.39
2023-01-18T02:38:54.940Z,1.47
2023-01-18T02:42:07.311Z,1.30
2023-01-18T02:45:03.461Z,1.41
2023-01-18T02:47:37.524Z,1.35
2023-01-18T02:50:10.650Z,1.37
2023-01-18T02:52:54.776Z,1.43
2023-01-18T02:55:42.310Z,1.40
2023-01-18T02:58:47.125Z,1.26
2023-01-18T03:01:32.518Z,1.32
2023-01-18T03:04:29.589Z,1.40
2023-01-18T03:07:12.888Z,1.26
2023-01-18T03:09:46.974Z,1.40
2023-01-18T03:12:46.433Z,1.42
2023-01-18T03:16:01.203Z,1.39
2023-01-18T03:19:36.521Z,1.36
2023-01-18T03:22:10.686Z,1.40
2023-01-18T03:24:45.721Z,1.37
2023-01-18T03:27:36.789Z,1.40
2023-01-18T03:30:28.483Z,1.36
2023-01-18T03:33:20.185Z,1.23
2023-01-18T03:35:54.527Z,1.23
2023-01-18T03:38:27.977Z,1.22
2023-01-18T03:41:01.938Z,1.24
2023-01-18T03:43:38.168Z,1.26
2023-01-18T03:46:10.579Z,1.20
2023-01-18T03:48:43.226Z,1.25
2023-01-18T03:51:34.428Z,1.26
2023-01-18T03:54:37.572Z,1.27
2023-01-18T03:57:30.643Z,1.27
2023-01-18T04:00:06.967Z,1.25
2023-01-18T04:03:01.649Z,1.10
2023-01-18T04:05:35.388Z,1.14
2023-01-18T04:08:08.001Z,1.10
2023-01-18T04:10:41.814Z,1.09
2023-01-18T04:13:13.691Z,1.18
2023-01-18T04:15:47.000Z,1.14
2023-01-18T04:18:19.707Z,1.09
2023-01-18T04:20:56.760Z,1.13
2023-01-18T04:23:28.688Z,1.12
2023-01-18T04:26:01.000Z,1.16
2023-01-18T04:28:34.468Z,1.13
2023-01-18T04:31:08.105Z,1.18
2023-01-18T04:33:40.043Z,1.14
2023-01-18T04:36:12.747Z,1.12
2023-01-18T04:38:45.069Z,1.12
2023-01-18T04:41:17.052Z,1.11
2023-01-18T04:43:50.183Z,1.13
2023-01-18T04:46:22.177Z,1.09
2023-01-18T04:48:55.002Z,1.09
2023-01-18T04:51:27.366Z,1.08
2023-01-18T04:54:00.663Z,1.07
2023-01-18T04:56:32.960Z,1.08
2023-01-18T04:59:05.384Z,1.14
2023-01-18T05:01:37.761Z,0.99
2023-01-18T05:04:09.881Z,1.05
2023-01-18T05:06:42.634Z,1.11
2023-01-18T05:09:15.302Z,1.03
2023-01-18T05:11:47.643Z,1.01
2023-01-18T05:14:19.958Z,1.01
2023-01-18T05:16:52.712Z,1.08
2023-01-18T05:19:30.957Z,1.17
2023-01-18T05:22:02.848Z,0.99
2023-01-18T05:24:35.610Z,1.03
2023-01-18T05:27:07.536Z,6.23
2023-01-18T05:29:40.403Z,1.74
2023-01-18T05:32:12.683Z,1.47
2023-01-18T05:34:46.046Z,1.23
2023-01-18T05:37:17.939Z,1.24
2023-01-18T05:39:50.641Z,1.26
2023-01-18T05:42:23.323Z,1.29
2023-01-18T05:44:55.234Z,1.18
2023-01-18T05:47:28.180Z,1.18
2023-01-18T05:50:01.066Z,1.15
2023-01-18T05:52:34.865Z,1.17
2023-01-18T05:55:08.244Z,1.14
2023-01-18T05:57:40.612Z,1.20
2023-01-18T06:00:13.056Z,1.14
2023-01-18T06:02:45.798Z,1.15
2023-01-18T06:05:17.669Z,1.27
2023-01-18T06:07:50.712Z,1.13
2023-01-18T06:10:22.574Z,1.24
2023-01-18T06:12:55.316Z,1.14
2023-01-18T06:15:27.693Z,1.16
2023-01-18T06:18:00.528Z,1.19
2023-01-18T06:20:32.838Z,1.20
2023-01-18T06:23:05.740Z,1.17
2023-01-18T06:25:37.858Z,1.20
2023-01-18T06:28:10.639Z,1.11
2023-01-18T06:30:42.849Z,1.21
2023-01-18T06:33:15.955Z,1.06
2023-01-18T06:35:48.363Z,1.06
2023-01-18T06:38:20.770Z,1.09
2023-01-18T06:40:56.017Z,1.09
2023-01-18T06:43:28.023Z,1.16
2023-01-18T06:46:01.111Z,1.14
2023-01-18T06:48:33.346Z,1.10
2023-01-18T06:51:06.304Z,1.19
2023-01-18T06:53:39.122Z,1.13
2023-01-18T06:56:13.367Z,1.14
2023-01-18T06:58:45.776Z,1.19
2023-01-18T07:01:17.817Z,1.16
2023-01-18T07:03:50.720Z,1.20
2023-01-18T07:06:24.115Z,1.17
2023-01-18T07:08:56.412Z,1.34
2023-01-18T07:11:29.553Z,1.27
2023-01-18T07:14:01.438Z,1.19
2023-01-18T07:16:34.657Z,1.10
2023-01-18T07:19:06.741Z,1.17
2023-01-18T07:21:40.070Z,1.12
2023-01-18T07:24:12.024Z,1.09
2023-01-18T07:26:44.802Z,1.12
2023-01-18T07:29:17.271Z,1.19
2023-01-18T07:31:49.613Z,1.19
2023-01-18T07:34:23.382Z,1.00
2023-01-18T07:36:57.054Z,1.09
2023-01-18T07:39:28.992Z,1.16
2023-01-18T07:42:01.713Z,1.08
2023-01-18T07:44:34.074Z,1.12
2023-01-18T07:47:08.308Z,1.18
2023-01-18T07:49:43.680Z,1.13
2023-01-18T07:52:16.403Z,1.10
2023-01-18T07:54:48.274Z,1.17
2023-01-18T07:57:21.612Z,1.24
2023-01-18T07:59:53.940Z,5.08
2023-01-18T08:02:26.415Z,2.36
2023-01-18T08:04:59.263Z,1.69
2023-01-18T08:07:34.285Z,1.37
2023-01-18T08:10:07.607Z,1.35
2023-01-18T08:12:39.916Z,1.26
2023-01-18T08:15:12.590Z,1.60
2023-01-18T08:17:44.905Z,1.28
2023-01-18T08:20:17.811Z,1.23
2023-01-18T08:22:57.291Z,1.17
2023-01-18T08:25:33.854Z,1.29
2023-01-18T08:28:06.681Z,1.24
2023-01-18T08:30:43.726Z,1.34
2023-01-18T08:33:16.347Z,1.23
2023-01-18T08:35:48.478Z,1.22
2023-01-18T08:38:22.295Z,1.23
2023-01-18T08:40:54.435Z,1.35
2023-01-18T08:43:27.191Z,1.33
2023-01-18T08:45:59.738Z,1.39
2023-01-18T08:48:32.365Z,1.29
2023-01-18T08:51:04.726Z,1.46
2023-01-18T08:53:37.770Z,1.41
2023-01-18T08:56:09.891Z,1.48
2023-01-18T08:58:43.579Z,1.51
2023-01-18T09:01:16.140Z,1.49
2023-01-18T09:03:51.106Z,1.55
2023-01-18T09:06:23.797Z,1.43
2023-01-18T09:08:56.541Z,1.48
2023-01-18T09:11:29.286Z,1.60
2023-01-18T09:14:02.447Z,1.71
2023-01-18T09:16:34.844Z,1.76
2023-01-18T09:19:07.590Z,1.70
2023-01-18T09:21:40.686Z,1.72
2023-01-18T09:24:13.632Z,1.80
2023-01-18T09:26:47.688Z,1.86
2023-01-18T09:29:20.742Z,1.95
2023-01-18T09:31:54.228Z,1.90
2023-01-18T09:34:27.065Z,1.73
2023-01-18T09:37:02.615Z,1.80
2023-01-18T09:39:57.005Z,1.71
2023-01-18T09:42:38.541Z,1.64
2023-01-18T09:45:28.487Z,1.95
2023-01-18T09:48:40.144Z,1.93
2023-01-18T09:51:47.027Z,2.22
2023-01-18T09:54:51.386Z,2.28
2023-01-18T09:57:34.366Z,2.31
2023-01-18T10:00:37.482Z,2.60
2023-01-18T10:03:47.450Z,2.54
2023-01-18T10:06:35.386Z,2.41
2023-01-18T10:09:16.113Z,2.09
2023-01-18T10:12:01.830Z,2.28
2023-01-18T10:14:46.764Z,2.34
2023-01-18T10:17:23.225Z,2.27
2023-01-18T10:19:55.932Z,2.09
2023-01-18T10:22:29.941Z,2.27
2023-01-18T10:25:44.632Z,2.47
2023-01-18T10:28:26.923Z,2.71
2023-01-18T10:31:15.810Z,2.88
2023-01-18T10:33:55.553Z,3.19
2023-01-18T10:36:38.820Z,3.19
2023-01-18T10:39:37.087Z,2.53
2023-01-18T10:42:24.084Z,2.77
2023-01-18T10:44:55.992Z,2.72
2023-01-18T10:47:29.119Z,2.98
2023-01-18T10:50:01.030Z,3.34
2023-01-18T10:52:36.740Z,3.44
2023-01-18T10:55:17.567Z,3.50
2023-01-18T10:57:53.871Z,2.86
2023-01-18T11:00:34.136Z,3.34
2023-01-18T11:03:28.662Z,3.96
2023-01-18T11:06:06.924Z,4.51
2023-01-18T11:08:39.216Z,3.97
2023-01-18T11:11:52.549Z,3.79
2023-01-18T11:14:31.745Z,3.35
2023-01-18T11:17:11.362Z,3.49
2023-01-18T11:19:44.199Z,3.41
2023-01-18T11:22:17.557Z,3.36
2023-01-18T11:24:53.513Z,3.63
2023-01-18T11:27:25.869Z,3.95
2023-01-18T11:30:21.771Z,3.86
2023-01-18T11:32:54.664Z,3.65
2023-01-18T11:35:37.755Z,3.41
2023-01-18T11:38:18.710Z,3.45
2023-01-18T11:41:18.523Z,3.44
2023-01-18T11:44:23.669Z,3.24
2023-01-18T11:47:04.263Z,3.37
2023-01-18T11:49:47.633Z,3.27
2023-01-18T11:52:42.788Z,3.46
2023-01-18T11:55:39.970Z,3.50
2023-01-18T11:58:28.794Z,3.63
2023-01-18T12:01:45.955Z,3.16
2023-01-18T12:04:33.242Z,3.20
2023-01-18T12:07:33.132Z,2.89
2023-01-18T12:10:14.357Z,2.86
2023-01-18T12:13:22.892Z,3.26
2023-01-18T12:16:10.689Z,3.55
2023-01-18T12:19:09.895Z,3.35
2023-01-18T12:22:07.507Z,3.19
2023-01-18T12:25:08.477Z,3.19
2023-01-18T12:28:04.251Z,3.35
2023-01-18T12:30:55.414Z,3.25
2023-01-18T12:33:58.049Z,2.86
2023-01-18T12:36:49.176Z,3.45
2023-01-18T12:39:46.328Z,3.17
2023-01-18T12:42:33.243Z,3.26
2023-01-18T12:46:03.758Z,3.11
2023-01-18T12:48:56.942Z,3.23
2023-01-18T12:51:35.195Z,3.03
2023-01-18T12:54:34.394Z,3.11
2023-01-18T12:57:08.241Z,2.90
2023-01-18T13:00:09.572Z,2.86
2023-01-18T13:02:45.767Z,2.99
2023-01-18T13:05:35.652Z,3.15
2023-01-18T13:08:20.522Z,3.23
2023-01-18T13:11:00.999Z,3.10
2023-01-18T13:13:35.062Z,3.18
2023-01-18T13:16:34.662Z,3.11
2023-01-18T13:19:21.608Z,2.64
2023-01-18T13:22:14.551Z,3.19
2023-01-18T13:25:19.596Z,3.17
2023-01-18T13:28:10.446Z,3.38
2023-01-18T13:31:01.556Z,3.34
2023-01-18T13:33:39.220Z,3.33
2023-01-18T13:36:19.793Z,3.34
2023-01-18T13:39:01.141Z,3.23
2023-01-18T13:41:34.178Z,3.33
2023-01-18T13:44:32.378Z,3.25
2023-01-18T13:47:43.065Z,3.24
2023-01-18T13:50:39.880Z,3.39
2023-01-18T13:53:15.264Z,3.25
2023-01-18T13:55:59.429Z,2.66
2023-01-18T13:58:34.653Z,2.61
2023-01-18T14:01:21.277Z,2.45
2023-01-18T14:03:54.325Z,2.65
2023-01-18T14:06:34.623Z,2.63
2023-01-18T14:09:15.052Z,2.44
2023-01-18T14:11:59.180Z,2.24
2023-01-18T14:14:36.223Z,2.38
2023-01-18T14:17:32.011Z,2.44
2023-01-18T14:20:34.215Z,2.14
2023-01-18T14:23:21.040Z,2.08
2023-01-18T14:26:09.434Z,2.13
2023-01-18T14:28:55.221Z,2.13
2023-01-18T14:31:51.863Z,2.14
2023-01-18T14:34:32.473Z,2.11
2023-01-18T14:37:28.972Z,2.06
2023-01-18T14:40:26.404Z,2.03
2023-01-18T14:43:14.856Z,2.08
2023-01-18T14:46:16.099Z,2.03
2023-01-18T14:48:59.503Z,2.01
2023-01-18T14:51:32.614Z,1.92
2023-01-18T14:54:12.737Z,1.99
2023-01-18T14:56:46.080Z,1.90
2023-01-18T14:59:27.637Z,2.00
2023-01-18T15:02:20.123Z,1.93
2023-01-18T15:05:13.103Z,1.88
2023-01-18T15:07:56.076Z,2.09
2023-01-18T15:10:28.638Z,2.08
2023-01-18T15:13:08.075Z,1.95
2023-01-18T15:16:02.147Z,1.87
2023-01-18T15:18:34.236Z,1.93
2023-01-18T15:21:22.186Z,1.87
2023-01-18T15:24:09.090Z,2.07
2023-01-18T15:26:46.286Z,1.92
2023-01-18T15:29:20.659Z,1.94
2023-01-18T15:32:34.719Z,1.92
2023-01-18T15:35:13.537Z,1.86
2023-01-18T15:37:47.258Z,1.95
2023-01-18T15:40:20.848Z,1.92
2023-01-18T15:43:25.624Z,2.00
2023-01-18T15:45:59.416Z,1.93
2023-01-18T15:48:48.349Z,1.86
2023-01-18T15:51:46.206Z,2.01
2023-01-18T15:54:25.677Z,1.98
2023-01-18T15:57:14.645Z,2.09
2023-01-18T15:59:47.585Z,2.09
2023-01-18T16:05:23.916Z,2.09
2023-01-18T16:08:21.330Z,2.01
2023-01-18T16:10:57.283Z,1.93
2023-01-18T16:13:42.682Z,1.94
2023-01-18T16:16:42.191Z,2.20
2023-01-18T16:19:23.914Z,2.23
2023-01-18T16:22:06.597Z,2.15
2023-01-18T16:24:46.888Z,2.07
2023-01-18T16:27:54.061Z,2.07
2023-01-18T16:30:40.153Z,2.07
2023-01-18T16:33:18.275Z,2.11
2023-01-18T16:35:51.122Z,2.11
2023-01-18T16:38:23.776Z,2.14
2023-01-18T16:40:59.409Z,2.10
2023-01-18T16:43:51.024Z,2.11
2023-01-18T16:46:23.883Z,2.18
2023-01-18T16:48:55.816Z,2.25
2023-01-18T16:51:50.700Z,2.24
2023-01-18T16:54:25.248Z,2.16
2023-01-18T16:56:57.455Z,2.16
2023-01-18T16:59:31.365Z,2.23
2023-01-18T17:02:03.498Z,1.97
2023-01-18T17:04:36.301Z,1.95
2023-01-18T17:07:09.911Z,1.81
2023-01-18T17:09:48.886Z,1.88
2023-01-18T17:12:21.343Z,1.98
2023-01-18T17:14:54.630Z,2.04
2023-01-18T17:17:26.961Z,1.95
2023-01-18T17:19:59.695Z,2.07
2023-01-18T17:22:32.416Z,2.04
2023-01-18T17:25:05.262Z,2.02
2023-01-18T17:27:37.424Z,2.05
2023-01-18T17:30:13.334Z,2.01
2023-01-18T17:33:05.563Z,2.05
2023-01-18T17:35:37.907Z,1.94
2023-01-18T17:38:17.241Z,1.88
2023-01-18T17:43:49.337Z,1.97
2023-01-18T17:46:21.718Z,1.84
2023-01-18T17:51:48.382Z,1.90
2023-01-18T17:54:39.474Z,1.80
2023-01-18T17:57:11.384Z,1.52
2023-01-18T17:59:44.594Z,1.40
2023-01-18T18:02:17.060Z,1.25
2023-01-18T18:04:50.367Z,1.24
2023-01-18T18:07:23.141Z,1.18
2023-01-18T18:10:00.030Z,1.19
2023-01-18T18:12:35.549Z,1.12
2023-01-18T18:15:07.905Z,0.86
2023-01-18T18:17:40.891Z,0.79
2023-01-18T18:20:14.570Z,0.83
2023-01-18T18:22:46.919Z,0.76
2023-01-18T18:25:18.912Z,0.71
2023-01-18T18:27:51.902Z,0.73
2023-01-18T18:30:23.802Z,0.79
2023-01-18T18:32:58.155Z,0.81
2023-01-18T18:35:30.656Z,0.75
2023-01-18T18:38:03.415Z,0.69
2023-01-18T18:40:38.890Z,0.84
2023-01-18T18:43:11.750Z,0.91
2023-01-18T18:45:47.969Z,0.87
2023-01-18T18:48:20.172Z,0.98
2023-01-18T18:50:53.993Z,0.99
2023-01-18T18:53:37.445Z,0.93
2023-01-18T18:56:12.486Z,0.95
2023-01-18T18:58:44.828Z,0.96
2023-01-18T19:01:27.140Z,0.78
2023-01-18T19:04:00.085Z,0.80
2023-01-18T19:06:33.026Z,0.89
2023-01-18T19:09:06.118Z,0.93
2023-01-18T19:11:41.627Z,0.92
2023-01-18T19:14:19.913Z,0.87
2023-01-18T19:16:53.102Z,1.06
2023-01-18T19:19:27.038Z,0.83
2023-01-18T19:21:58.916Z,0.87
2023-01-18T19:24:35.288Z,0.89
2023-01-18T19:27:07.168Z,0.83
2023-01-18T19:29:40.031Z,0.70
2023-01-18T19:32:12.323Z,0.62
2023-01-18T19:34:44.625Z,0.60
2023-01-18T19:37:17.324Z,0.64
2023-01-18T19:39:50.042Z,0.65
2023-01-18T19:42:23.167Z,0.77
2023-01-18T19:44:59.254Z,0.77
2023-01-18T19:47:32.484Z,0.65
2023-01-18T19:50:23.249Z,0.50
2023-01-18T19:52:56.760Z,0.58
2023-01-18T19:55:30.358Z,0.58
2023-01-18T19:58:03.200Z,0.47
2023-01-18T20:00:35.506Z,0.47
2023-01-18T20:03:13.873Z,0.43
2023-01-18T20:05:45.838Z,0.57
2023-01-18T20:11:30.589Z,0.44
2023-01-18T20:14:02.873Z,0.29
2023-01-18T20:16:35.606Z,0.41
2023-01-18T20:19:11.854Z,0.38
2023-01-18T20:21:44.582Z,0.44
2023-01-18T20:24:16.786Z,0.43
2023-01-18T20:26:50.338Z,0.32
2023-01-18T20:29:24.263Z,0.35
2023-01-18T20:32:08.489Z,0.34
2023-01-18T20:34:47.705Z,0.37
2023-01-18T20:37:19.719Z,0.37
2023-01-18T20:39:52.891Z,0.51
2023-01-18T20:42:25.254Z,0.49
2023-01-18T20:45:00.439Z,0.45
2023-01-18T20:47:33.742Z,0.46
2023-01-18T20:50:06.396Z,0.47
2023-01-18T20:52:39.282Z,0.46
2023-01-18T20:55:15.226Z,0.37
2023-01-18T20:57:54.484Z,0.24
2023-01-18T21:00:27.240Z,0.23
2023-01-18T21:03:00.073Z,0.29
2023-01-18T21:05:33.118Z,0.28
2023-01-18T21:08:05.568Z,0.37
2023-01-18T21:10:42.704Z,0.32
2023-01-18T21:13:14.736Z,0.37
2023-01-18T21:15:55.456Z,0.33
2023-01-18T21:18:28.321Z,0.25
2023-01-18T21:21:00.887Z,0.28
2023-01-18T21:23:39.719Z,0.18
2023-01-18T21:26:12.787Z,0.39
2023-01-18T21:28:48.125Z,0.30
2023-01-18T21:31:21.553Z,0.10
2023-01-18T21:33:55.316Z,0.08
2023-01-18T21:36:28.018Z,0.20
2023-01-18T21:39:00.127Z,0.30
2023-01-18T21:41:51.364Z,0.14
2023-01-18T21:44:41.594Z,0.18
2023-01-18T21:47:17.819Z,0.23
2023-01-18T21:50:17.494Z,0.28
2023-01-18T21:53:09.474Z,0.23
2023-01-18T21:55:41.754Z,0.24
2023-01-18T21:58:33.030Z,0.30
2023-01-18T22:01:39.433Z,0.12
2023-01-18T22:04:32.999Z,-0.03
2023-01-18T22:07:33.555Z,0.05
2023-01-18T22:10:07.325Z,0.03
2023-01-18T22:12:39.873Z,-0.09
2023-01-18T22:15:15.942Z,-0.12
2023-01-18T22:17:49.141Z,-0.20
2023-01-18T22:20:21.870Z,-0.06
2023-01-18T22:22:54.329Z,-0.12
2023-01-18T22:25:27.048Z,-0.07
2023-01-18T22:27:59.245Z,-0.18
2023-01-18T22:30:32.554Z,-0.25
2023-01-18T22:33:04.945Z,-0.27
2023-01-18T22:35:39.787Z,-0.24
2023-01-18T22:38:12.767Z,-0.31
2023-01-18T22:40:45.075Z,-0.26
2023-01-18T22:43:40.496Z,-0.30
2023-01-18T22:46:16.409Z,-0.26
2023-01-18T22:48:48.729Z,-0.32
2023-01-18T22:51:24.163Z,-0.37
2023-01-18T22:53:56.403Z,-0.44
2023-01-18T22:56:28.799Z,-0.37
2023-01-18T22:59:01.597Z,-0.35
2023-01-18T23:01:33.948Z,-0.50
2023-01-18T23:04:06.700Z,-0.43
2023-01-18T23:07:01.288Z,-0.44
2023-01-18T23:09:33.196Z,-0.48
2023-01-18T23:12:06.392Z,-0.53
2023-01-18T23:14:56.604Z,-0.47
2023-01-18T23:17:41.163Z,-0.45
2023-01-18T23:20:14.909Z,-0.51
2023-01-18T23:22:47.690Z,-0.65
2023-01-18T23:25:19.559Z,-0.57
2023-01-18T23:27:52.408Z,-0.57
2023-01-18T23:30:24.324Z,-0.60
2023-01-18T23:32:57.610Z,-0.54
2023-01-18T23:35:29.548Z,-0.60
2023-01-18T23:38:02.934Z,-0.53
2023-01-18T23:40:54.941Z,-0.67
2023-01-18T23:43:45.166Z,-0.67
2023-01-18T23:46:36.495Z,-0.70
2023-01-18T23:49:29.769Z,-0.68
2023-01-18T23:52:20.343Z,-0.72
2023-01-18T23:54:53.064Z,-0.55
2023-01-18T23:57:24.968Z,-0.62
2023-01-18T23:59:57.682Z,-0.59
